Sestao, Spain
Current Conditions -  °F | °C
As of 3:30 PM on Monday 20 Oct 2014 (Local Time) from LEBB Reporting Station
Few Clouds Few Clouds  
Wind Chill: 72°   Ceiling: Unl
Heat Index: 72°   Visibility: 5mi
Dew Point: 64°   Wind: 13mph
Humidity: 78%   Direction: 310°NW
Pressure: 30.12"   Gusts: NA
Location:  43.31°N, 3.01°W
Report Text: LEBB 201330Z 31011KT 270V340 8000 FEW010 22/18 Q1020 NOSIG
Loading
Personal Weather Stations






























Interactive Weather Map
Tropical Storm Tracking
New forecast layout! Learn more

10-Day Weather Forecast

Advertisements
Track Severe Weather on mobile